Delray Beach, FL

3:51 PM EST on March 02, 2015 (GMT -0500)
Fort Lauderdale Executive | Change Station
CLOSE
Current Station
Airport
Location: Fort Lauderdale,
Elevation: 13 ft
Nearby Weather Stations

Elev 13 ft 26.20 °N, 80.18 °W | Updated 58 minutes ago

Mostly Cloudy
Mostly Cloudy
81 °F
Feels Like 83 °F
N
12
Wind Variable Wind from East

Today
High -- | Low -- °F
--% Chance of Precip.
Yesterday
High -- | Low -- °F
Precip. -- in
6:43 AM 6:22 PM
Waxing Gibbous, 93% visible
Pressure 30.20 in
Visibility 10.0 miles
Clouds Scattered Clouds 2800 ft
Scattered Clouds 3400 ft
Heat Index 83 °F
Dew Point 65 °F
Humidity 58%
Rainfall 0.00 in
Snow Depth Not available.
UV 6 out of 12
Pollen 10.60 out of 12
Air Quality Not available.
Flu Activity Not available.
METAR KFXE 021953Z 09010KT 10SM SCT028 SCT034 27/18 A3019 RMK AO2 SLP225 T02720183

More Conditions Fewer Conditions

Pressure 30.20 in
Visibility 10.0 miles
Clouds Scattered Clouds 2800 ft
Scattered Clouds 3400 ft
Heat Index 83 °F
Dew Point 65 °F
Humidity 58%
Rainfall 0.00 in
Snow Depth Not available.
UV 6 out of 12
Pollen 10.60 out of 12
Air Quality Not available.
Flu Activity Not available.
METAR KFXE 021953Z 09010KT 10SM SCT028 SCT034 27/18 A3019 RMK AO2 SLP225 T02720183

More Conditions Fewer Conditions

10-Day Weather Forecast

Almanac

Astronomy

Mar. 02, 2015 Rise Set
Actual Time
Civil Twilight
Nautical Twilight
Astronomical Twilight
Moon
Length of Visible Light
Length of Day
Tomorrow will be .
, % of the Moon is Illuminated

Today's Extremes

State Highs State Lows

Community

WunderPhotos

Upload Photos

1,801,941 photos uploaded!

WunderBlogs® & News

Nearby

Air Quality

  Air Quality AQ Index Pollutant
Not available.

Snow Depth

Station Depth Elevation

Earthquake Activity

City Distance Mag. Time & Date
Minimum magnitude displayed is 2.5.

Coastal Water Temperatures

Place Temperature

Nearby Weather Stations